Time;durP1;ratioP1;P1;durP2;ratioP2;P2;SDS_P1;SDS_P2;PMS_P1;PMS_P2;Temp;Humidity;BMP_temperature;BMP_pressure;BME280_temperature;BME280_humidity;BME280_pressure;Samples;Min_cycle;Max_cycle;Signal;HPM_P1;HPM_P2
2022/10/18 00:01:25;;;;;;;25.85;18.50;;;;;;;14.98;81.68;101889.53;7396127;19;20022;-71
2022/10/18 00:03:53;;;;;;;29.33;19.00;;;;;;;14.99;81.79;101887.78;7397708;19;20484;-70
2022/10/18 00:06:22;;;;;;;26.35;19.15;;;;;;;14.98;81.69;101893.97;7395945;19;20421;-71
2022/10/18 00:08:50;;;;;;;24.00;18.60;;;;;;;14.97;81.58;101885.19;7397470;19;20485;-71
2022/10/18 00:11:22;;;;;;;25.38;19.10;;;;;;;14.96;81.92;101882.56;7395836;19;20014;-71
2022/10/18 00:13:50;;;;;;;24.90;19.25;;;;;;;14.95;81.84;101879.06;7397389;19;20035;-71
2022/10/18 00:16:20;;;;;;;28.20;19.85;;;;;;;14.93;81.96;101878.22;7397837;19;20035;-71
2022/10/18 00:18:49;;;;;;;29.70;19.10;;;;;;;14.93;81.74;101882.63;7395144;19;20018;-71
2022/10/18 00:21:20;;;;;;;28.10;19.95;;;;;;;14.93;81.84;101882.63;7395872;19;20362;-70
2022/10/18 00:23:49;;;;;;;27.13;18.85;;;;;;;14.91;82.17;101881.78;7397753;19;20082;-70
2022/10/18 00:26:23;;;;;;;24.58;17.48;;;;;;;14.88;82.08;101880.09;7395533;19;20074;-70
2022/10/18 00:28:53;;;;;;;27.58;18.77;;;;;;;14.85;82.21;101880.16;7395926;19;20032;-70
2022/10/18 00:31:24;;;;;;;27.23;18.35;;;;;;;14.84;82.31;101886.34;7395520;19;20011;-70
2022/10/18 00:33:55;;;;;;;25.30;18.70;;;;;;;14.82;82.52;101886.38;7397381;19;20035;-71
2022/10/18 00:36:24;;;;;;;25.60;18.50;;;;;;;14.80;82.56;101879.41;7395671;19;20022;-71
2022/10/18 00:38:53;;;;;;;25.23;18.02;;;;;;;14.78;82.32;101882.03;7396514;19;20015;-70
2022/10/18 00:41:26;;;;;;;24.25;18.13;;;;;;;14.79;82.52;101882.94;7395237;19;20019;-71
2022/10/18 00:43:58;;;;;;;25.38;17.20;;;;;;;14.78;82.53;101882.03;7397207;19;20014;-70
2022/10/18 00:46:28;;;;;;;22.50;17.52;;;;;;;14.78;82.68;101879.41;7394489;19;20015;-71
2022/10/18 00:48:59;;;;;;;25.38;17.80;;;;;;;14.78;82.47;101882.03;7394478;19;20031;-70
2022/10/18 00:51:32;;;;;;;24.02;17.65;;;;;;;14.78;82.58;101887.34;7394706;19;20027;-70
2022/10/18 00:54:01;;;;;;;25.02;17.88;;;;;;;14.78;82.51;101887.34;7399588;19;20010;-71
2022/10/18 00:56:35;;;;;;;26.90;18.02;;;;;;;14.78;82.51;101891.75;7397569;19;20030;-71
2022/10/18 00:59:04;;;;;;;26.63;18.77;;;;;;;14.75;82.65;101892.69;7396493;19;20501;-71
2022/10/18 01:01:32;;;;;;;24.88;18.45;;;;;;;14.75;82.46;101897.13;7394649;19;20022;-71
2022/10/18 01:04:01;;;;;;;23.85;16.63;;;;;;;14.75;82.58;101895.34;7395595;19;20383;-71
2022/10/18 01:06:31;;;;;;;26.92;16.70;;;;;;;14.74;82.84;101898.00;7395034;19;20018;-70
2022/10/18 01:09:08;;;;;;;22.70;15.18;;;;;;;14.75;82.90;101897.13;7395844;19;20035;-70
2022/10/18 01:12:09;;;;;;;18.95;15.10;;;;;;;14.74;82.98;101901.50;7394190;19;20039;-71
2022/10/18 01:14:48;;;;;;;20.00;13.90;;;;;;;14.76;82.83;101897.09;7395897;19;20035;-68
2022/10/18 01:17:27;;;;;;;18.90;13.90;;;;;;;14.77;82.83;101898.81;7395257;19;20014;-68
2022/10/18 01:20:31;;;;;;;19.33;14.15;;;;;;;14.80;82.94;101893.47;7395384;19;20014;-67
2022/10/18 01:23:06;;;;;;;20.40;14.35;;;;;;;14.82;82.78;101890.78;7394969;19;20014;-68
2022/10/18 01:25:43;;;;;;;21.65;15.60;;;;;;;14.82;82.59;101896.97;7395021;19;20034;-68
2022/10/18 01:28:29;;;;;;;17.88;13.70;;;;;;;14.85;82.95;101903.06;7395301;19;20410;-68
2022/10/18 01:31:03;;;;;;;21.08;14.80;;;;;;;14.86;82.64;101902.16;7394107;19;20019;-67
2022/10/18 01:33:39;;;;;;;19.67;14.70;;;;;;;14.84;83.15;101902.19;7395641;19;20023;-68
2022/10/18 01:36:16;;;;;;;21.33;14.82;;;;;;;14.86;82.78;101895.13;7395526;19;20032;-67
2022/10/18 01:38:46;;;;;;;22.33;14.38;;;;;;;14.88;82.85;101900.38;7395139;19;20033;-68
2022/10/18 01:41:16;;;;;;;20.02;15.27;;;;;;;14.87;82.78;101896.84;7393442;19;20038;-67
2022/10/18 01:43:47;;;;;;;20.90;15.00;;;;;;;14.89;82.80;101894.19;7394818;19;20018;-68
2022/10/18 01:46:23;;;;;;;19.35;14.18;;;;;;;14.87;83.14;101895.97;7393206;19;20035;-68
2022/10/18 01:48:54;;;;;;;18.55;12.15;;;;;;;14.90;83.00;101895.91;7394804;19;20032;-68
2022/10/18 01:51:27;;;;;;;17.65;12.75;;;;;;;14.92;83.43;101896.75;7392260;19;20011;-67
2022/10/18 01:53:55;;;;;;;23.33;18.93;;;;;;;14.93;83.79;101903.78;7392435;19;20489;-68
2022/10/18 01:56:35;;;;;;;20.92;17.20;;;;;;;14.96;84.78;101903.69;7394515;19;20026;-68
2022/10/18 01:59:27;;;;;;;19.10;14.15;;;;;;;14.97;84.22;101900.16;7397289;19;20032;-69
2022/10/18 02:02:08;;;;;;;14.32;12.82;;;;;;;15.01;84.50;101901.81;7401481;19;20019;-67
2022/10/18 02:04:45;;;;;;;16.08;11.77;;;;;;;15.06;84.77;101902.59;7402046;19;20014;-68
2022/10/18 02:07:25;;;;;;;15.73;11.38;;;;;;;15.09;84.63;101897.25;7399593;19;20074;-68
2022/10/18 02:10:01;;;;;;;15.25;10.88;;;;;;;15.14;84.72;101903.31;7398582;19;20517;-67
2022/10/18 02:12:31;;;;;;;15.88;10.98;;;;;;;15.18;84.75;101903.22;7401267;19;20018;-68
2022/10/18 02:15:01;;;;;;;13.95;10.70;;;;;;;15.22;85.39;101902.28;7399549;19;20019;-69
2022/10/18 02:17:33;;;;;;;13.48;10.18;;;;;;;15.24;85.12;101911.00;7402181;19;20019;-67
2022/10/18 02:20:03;;;;;;;14.85;10.38;;;;;;;15.23;85.07;101894.28;7398946;19;20035;-68
2022/10/18 02:22:34;;;;;;;13.05;10.60;;;;;;;15.31;85.07;101907.34;7402152;19;20026;-68
2022/10/18 02:25:09;;;;;;;15.52;10.40;;;;;;;15.34;85.52;101907.25;7401631;19;20019;-68
2022/10/18 02:27:38;;;;;;;14.18;10.60;;;;;;;15.35;85.50;101900.22;7401417;19;20015;-68
2022/10/18 02:30:08;;;;;;;15.00;10.65;;;;;;;15.37;85.55;101901.06;7399696;19;20031;-68
2022/10/18 02:32:46;;;;;;;13.63;10.75;;;;;;;15.38;85.40;101906.28;7400695;19;20473;-68
2022/10/18 02:35:20;;;;;;;17.27;9.85;;;;;;;15.40;86.02;101901.81;7398585;19;20026;-67
2022/10/18 02:37:51;;;;;;;13.63;11.20;;;;;;;15.41;85.85;101903.56;7400272;19;20421;-68
2022/10/18 02:40:20;;;;;;;12.05;10.20;;;;;;;15.43;86.00;101909.69;7399805;19;20031;-67
2022/10/18 02:42:50;;;;;;;16.25;10.25;;;;;;;15.48;86.14;101912.25;7400734;19;20015;-67
2022/10/18 02:45:19;;;;;;;15.52;10.52;;;;;;;15.51;86.39;101912.16;7400742;19;20040;-67
2022/10/18 02:47:50;;;;;;;19.13;11.18;;;;;;;15.53;86.55;101912.13;7400447;19;20040;-67
2022/10/18 02:50:19;;;;;;;14.15;11.25;;;;;;;15.59;85.94;101917.25;7399616;19;20074;-67
2022/10/18 02:52:48;;;;;;;16.70;10.90;;;;;;;15.59;86.33;101912.81;7397850;19;20031;-68
2022/10/18 02:55:16;;;;;;;15.13;10.93;;;;;;;15.64;86.48;101915.38;7400130;19;20026;-68
2022/10/18 02:57:45;;;;;;;16.90;10.55;;;;;;;15.67;86.55;101925.00;7399930;19;20014;-67
2022/10/18 03:00:15;;;;;;;12.48;9.95;;;;;;;15.70;86.34;101924.94;7399616;19;20015;-67
2022/10/18 03:02:43;;;;;;;14.02;11.35;;;;;;;15.71;86.36;101918.72;7399805;19;20427;-68
2022/10/18 03:05:15;;;;;;;17.23;10.23;;;;;;;15.73;86.67;101922.22;7396985;19;20414;-68
2022/10/18 03:07:43;;;;;;;13.18;10.18;;;;;;;15.73;86.89;101912.53;7397709;19;20035;-68
2022/10/18 03:10:12;;;;;;;12.35;10.50;;;;;;;15.74;86.79;101916.88;7396885;19;20029;-68
2022/10/18 03:12:40;;;;;;;14.68;11.50;;;;;;;15.75;86.54;101909.84;7399056;19;20019;-69
2022/10/18 03:15:09;;;;;;;14.07;10.20;;;;;;;15.76;86.30;101911.56;7399247;19;20014;-68
2022/10/18 03:17:38;;;;;;;16.35;10.38;;;;;;;15.79;86.41;101919.41;7399338;19;20018;-68
2022/10/18 03:20:07;;;;;;;11.07;9.98;;;;;;;15.79;86.91;101930.88;7398496;19;20031;-67
2022/10/18 03:22:39;;;;;;;14.73;10.07;;;;;;;15.78;86.90;101926.50;7398657;19;20018;-68
2022/10/18 03:25:08;;;;;;;12.00;10.20;;;;;;;15.79;87.25;101927.38;7399618;19;20048;-67
2022/10/18 03:27:36;;;;;;;11.65;10.45;;;;;;;15.79;87.31;101927.38;7396598;19;20014;-67
2022/10/18 03:30:05;;;;;;;14.90;10.55;;;;;;;15.77;87.51;101921.22;7398211;19;20035;-68
2022/10/18 03:32:34;;;;;;;13.30;11.15;;;;;;;15.77;87.60;101926.53;7398892;19;20010;-68
2022/10/18 03:35:02;;;;;;;16.30;11.90;;;;;;;15.77;88.33;101939.75;7396594;19;20426;-67
2022/10/18 03:37:31;;;;;;;14.25;11.57;;;;;;;15.75;88.49;101942.44;7398056;19;20011;-67
2022/10/18 03:40:02;;;;;;;15.55;11.23;;;;;;;15.75;88.74;101937.16;7397804;19;20384;-68
2022/10/18 03:42:31;;;;;;;13.40;12.00;;;;;;;15.75;89.28;101945.09;7398227;19;20103;-68
2022/10/18 03:44:59;;;;;;;15.80;12.27;;;;;;;15.73;89.37;101935.44;7398079;19;20492;-68
2022/10/18 03:47:28;;;;;;;15.00;11.98;;;;;;;15.69;89.38;101939.94;7396524;19;20023;-67
2022/10/18 03:49:56;;;;;;;15.13;10.98;;;;;;;15.71;89.92;101946.06;7395901;19;20387;-67
2022/10/18 03:52:25;;;;;;;15.07;11.38;;;;;;;15.67;90.06;101947.06;7396670;19;20020;-69
2022/10/18 03:54:53;;;;;;;16.98;12.35;;;;;;;15.69;89.83;101954.97;7397810;19;20036;-67
2022/10/18 03:57:24;;;;;;;17.65;12.30;;;;;;;15.68;90.14;101948.78;7397839;19;20027;-67
2022/10/18 03:59:53;;;;;;;14.27;11.82;;;;;;;15.68;90.46;101948.78;7396578;19;20039;-68
2022/10/18 04:02:23;;;;;;;53.33;36.75;;;;;;;15.67;90.51;101947.06;7397734;19;20015;-69
2022/10/18 04:04:52;;;;;;;23.88;19.20;;;;;;;15.67;90.86;101952.34;7396873;19;20365;-71
2022/10/18 04:07:21;;;;;;;17.02;14.18;;;;;;;15.66;91.15;101952.38;7396836;19;20018;-71
2022/10/18 04:09:49;;;;;;;21.08;16.85;;;;;;;15.64;91.12;101941.81;7396851;19;20443;-72
2022/10/18 04:12:26;;;;;;;18.27;14.85;;;;;;;15.64;91.67;101953.28;7397421;19;20082;-71
2022/10/18 04:14:55;;;;;;;17.55;14.23;;;;;;;15.63;91.43;101951.56;7396087;19;20078;-70
2022/10/18 04:17:23;;;;;;;20.20;15.40;;;;;;;15.61;91.95;101955.13;7395231;19;20480;-70
2022/10/18 04:19:52;;;;;;;22.23;15.25;;;;;;;15.57;92.07;101949.03;7396333;19;20074;-70
2022/10/18 04:22:20;;;;;;;19.63;15.40;;;;;;;15.53;92.34;101942.09;7396463;19;20552;-70
2022/10/18 04:24:49;;;;;;;20.92;16.40;;;;;;;15.52;92.94;101943.00;7397147;19;20083;-70
2022/10/18 04:27:17;;;;;;;22.70;16.08;;;;;;;15.50;93.99;101941.28;7395128;19;20082;-71
2022/10/18 04:29:48;;;;;;;23.27;16.23;;;;;;;15.47;93.53;101937.81;7396240;19;20015;-70
2022/10/18 04:32:17;;;;;;;28.77;22.98;;;;;;;15.47;93.69;101935.16;7397335;19;20047;-70
2022/10/18 04:34:45;;;;;;;21.85;18.77;;;;;;;15.46;93.80;101928.13;7396381;19;20444;-70
2022/10/18 04:37:14;;;;;;;22.70;17.67;;;;;;;15.47;93.71;101935.16;7396516;19;20078;-71
2022/10/18 04:39:45;;;;;;;21.27;17.80;;;;;;;15.48;93.95;101942.19;7396762;19;20090;-70
2022/10/18 04:42:14;;;;;;;22.23;18.40;;;;;;;15.48;94.27;101942.19;7395347;19;20041;-71
2022/10/18 04:44:42;;;;;;;24.30;18.75;;;;;;;15.48;94.12;101934.25;7394628;19;20430;-70
2022/10/18 04:47:13;;;;;;;23.77;17.75;;;;;;;15.48;94.45;101936.91;7395464;19;20078;-71
2022/10/18 04:49:48;;;;;;;24.35;18.00;;;;;;;15.48;94.42;101928.13;7396882;19;20082;-71
2022/10/18 04:52:17;;;;;;;24.85;18.73;;;;;;;15.46;94.34;101924.63;7395802;19;20085;-70
2022/10/18 04:54:45;;;;;;;23.02;17.10;;;;;;;15.44;94.35;101934.34;7395703;19;20426;-71
2022/10/18 04:57:14;;;;;;;20.98;17.30;;;;;;;15.42;94.49;101934.41;7394018;19;20066;-71
2022/10/18 04:59:42;;;;;;;21.13;17.85;;;;;;;15.40;94.95;101930.06;7394022;19;20078;-71
2022/10/18 05:02:13;;;;;;;19.85;17.05;;;;;;;15.39;95.04;101936.25;7393831;19;20035;-71
2022/10/18 05:04:41;;;;;;;26.52;17.88;;;;;;;15.35;94.86;101930.16;7394678;19;20014;-72
2022/10/18 05:07:10;;;;;;;24.05;18.23;;;;;;;15.34;94.78;101936.34;7393333;19;20477;-72
2022/10/18 05:09:38;;;;;;;26.25;18.75;;;;;;;15.33;95.12;101926.69;7392696;19;20077;-71
2022/10/18 05:12:07;;;;;;;24.20;19.08;;;;;;;15.32;95.26;101927.59;7393642;19;20031;-72
2022/10/18 05:14:36;;;;;;;22.42;17.73;;;;;;;15.30;95.50;101924.09;7395891;19;20198;-71
2022/10/18 05:17:04;;;;;;;24.15;18.15;;;;;;;15.28;95.37;101928.56;7393209;19;20078;-71
2022/10/18 05:19:35;;;;;;;23.60;18.70;;;;;;;15.26;95.84;101918.00;7394277;19;20014;-71
2022/10/18 05:22:04;;;;;;;27.27;20.13;;;;;;;15.26;95.99;101925.06;7394332;19;20161;-71
2022/10/18 05:24:32;;;;;;;30.98;21.85;;;;;;;15.24;96.00;101927.75;7394623;19;20027;-71
2022/10/18 05:27:01;;;;;;;29.45;22.50;;;;;;;15.21;96.00;101933.09;7393171;19;20141;-71
2022/10/18 05:29:29;;;;;;;27.42;21.30;;;;;;;15.20;96.10;101934.00;7392775;19;20078;-69
2022/10/18 05:31:58;;;;;;;28.55;20.88;;;;;;;15.18;96.40;101935.84;7394280;19;20022;-70
2022/10/18 05:34:30;;;;;;;27.45;20.40;;;;;;;15.16;96.43;101940.28;7396911;19;20432;-71
2022/10/18 05:37:01;;;;;;;25.77;19.88;;;;;;;15.13;96.39;101950.91;7398704;19;20019;-71
2022/10/18 05:39:30;;;;;;;27.25;19.25;;;;;;;15.09;96.74;101936.91;7398838;19;20409;-73
2022/10/18 05:41:59;;;;;;;34.47;23.35;;;;;;;15.06;96.76;101938.72;7399666;19;20081;-73
2022/10/18 05:44:27;;;;;;;29.02;22.23;;;;;;;15.02;96.77;101937.06;7402751;19;20022;-70
2022/10/18 05:46:55;;;;;;;30.58;21.70;;;;;;;14.99;96.99;101935.34;7399022;19;20070;-71
2022/10/18 05:49:24;;;;;;;34.90;24.00;;;;;;;14.98;97.18;101933.63;7402501;19;20066;-72
2022/10/18 05:51:53;;;;;;;33.55;23.95;;;;;;;14.96;97.40;101938.06;7400607;19;20086;-72
2022/10/18 05:54:24;;;;;;;39.00;24.98;;;;;;;14.96;97.64;101932.75;7402714;19;20078;-73
2022/10/18 05:56:52;;;;;;;33.80;22.95;;;;;;;14.94;98.02;101935.44;7402069;19;20023;-71
2022/10/18 05:59:21;;;;;;;31.35;22.33;;;;;;;14.93;97.75;101935.50;7401569;19;20015;-71
2022/10/18 06:01:49;;;;;;;30.45;22.13;;;;;;;14.93;98.04;101935.50;7401493;19;20018;-71
2022/10/18 06:04:18;;;;;;;34.13;23.63;;;;;;;14.92;98.22;101925.81;7401679;19;20018;-72
2022/10/18 06:06:47;;;;;;;38.88;23.85;;;;;;;14.89;98.36;101929.41;7401005;19;20019;-72
2022/10/18 06:09:15;;;;;;;35.53;22.92;;;;;;;14.90;98.67;101922.31;7401320;19;20019;-71
2022/10/18 06:11:46;;;;;;;32.65;23.02;;;;;;;14.91;98.74;101929.34;7398343;19;20093;-71
2022/10/18 06:14:15;;;;;;;32.58;22.92;;;;;;;14.87;98.91;101914.47;7398710;19;20018;-72
2022/10/18 06:16:43;;;;;;;36.28;22.75;;;;;;;14.89;99.23;101910.91;7401588;19;20026;-70
2022/10/18 06:19:12;;;;;;;34.35;23.67;;;;;;;14.89;99.03;101910.91;7401168;19;20035;-71
2022/10/18 06:21:40;;;;;;;33.95;23.70;;;;;;;14.88;99.37;101910.94;7399129;19;20026;-73
2022/10/18 06:24:09;;;;;;;32.40;23.02;;;;;;;14.88;99.27;101916.22;7400279;19;20413;-70
2022/10/18 06:26:37;;;;;;;32.85;21.98;;;;;;;14.82;99.63;101910.16;7400148;19;20010;-73
2022/10/18 06:29:09;;;;;;;29.40;21.63;;;;;;;14.83;100.00;101916.31;7397832;19;20082;-69
2022/10/18 06:31:37;;;;;;;29.02;20.35;;;;;;;14.80;99.59;101913.75;7398291;19;20011;-72
2022/10/18 06:34:06;;;;;;;29.45;22.38;;;;;;;14.79;100.00;101919.91;7400789;19;20011;-71
2022/10/18 06:36:34;;;;;;;29.98;22.05;;;;;;;14.78;99.73;101916.38;7400790;19;20028;-72
2022/10/18 06:39:03;;;;;;;30.63;21.05;;;;;;;14.76;99.85;101915.56;7400202;19;20414;-72
2022/10/18 06:41:31;;;;;;;46.97;31.55;;;;;;;14.78;99.74;101924.31;7397401;19;20073;-72
2022/10/18 06:44:05;;;;;;;52.05;37.85;;;;;;;14.79;100.00;101930.50;7400687;19;20011;-72
2022/10/18 06:46:37;;;;;;;32.75;24.25;;;;;;;14.78;100.00;101934.88;7395330;19;20026;-72
2022/10/18 06:49:05;;;;;;;33.72;23.25;;;;;;;14.77;100.00;101925.25;7400287;19;20019;-72
2022/10/18 06:51:33;;;;;;;30.88;23.02;;;;;;;14.78;99.97;101918.19;7396356;19;20380;-72
2022/10/18 06:54:02;;;;;;;34.13;22.95;;;;;;;14.78;100.00;101921.66;7399208;19;20018;-72
2022/10/18 06:56:31;;;;;;;27.40;21.13;;;;;;;14.79;100.00;101918.13;7400191;19;20022;-74
2022/10/18 06:58:59;;;;;;;27.63;20.55;;;;;;;14.80;100.00;101925.16;7398153;19;20014;-72
2022/10/18 07:01:28;;;;;;;27.50;20.00;;;;;;;14.80;100.00;101925.16;7404971;19;20094;-72
2022/10/18 07:03:59;;;;;;;27.02;20.58;;;;;;;14.81;100.00;101937.47;7408549;19;20036;-72
2022/10/18 07:06:28;;;;;;;36.00;26.85;;;;;;;14.82;100.00;101938.34;7405438;19;20038;-72
2022/10/18 07:08:56;;;;;;;28.73;21.63;;;;;;;14.83;100.00;101933.00;7402430;19;20014;-72
2022/10/18 07:11:27;;;;;;;26.67;20.98;;;;;;;14.83;100.00;101935.66;7404658;19;20018;-72
2022/10/18 07:13:59;;;;;;;27.70;20.13;;;;;;;14.86;100.00;101936.50;7406847;19;20014;-72
2022/10/18 07:16:28;;;;;;;28.15;19.95;;;;;;;14.84;100.00;101931.25;7408710;19;20014;-71
2022/10/18 07:18:59;;;;;;;26.98;20.70;;;;;;;14.86;100.00;101936.50;7410970;19;20041;-72
2022/10/18 07:21:28;;;;;;;24.80;18.92;;;;;;;14.87;100.00;101938.25;7404663;19;20074;-72
2022/10/18 07:23:58;;;;;;;26.15;19.13;;;;;;;14.87;100.00;101946.19;7407187;19;20010;-72
2022/10/18 07:26:28;;;;;;;27.48;18.48;;;;;;;14.88;100.00;101950.56;7405955;19;20032;-71
2022/10/18 07:29:00;;;;;;;25.85;18.88;;;;;;;14.85;100.00;101950.63;7404112;19;20031;-72
2022/10/18 07:31:29;;;;;;;25.02;20.08;;;;;;;14.88;100.00;101950.56;7401322;19;20010;-72
2022/10/18 07:34:00;;;;;;;24.00;18.08;;;;;;;14.87;100.00;101951.47;7398515;19;20582;-72
2022/10/18 07:36:29;;;;;;;28.67;19.15;;;;;;;14.88;100.00;101953.22;7397917;19;20405;-72
2022/10/18 07:38:58;;;;;;;24.30;17.33;;;;;;;14.88;100.00;101969.06;7398205;19;20070;-71
2022/10/18 07:41:27;;;;;;;20.27;17.15;;;;;;;14.89;100.00;101955.81;7396592;19;20018;-71
2022/10/18 07:43:56;;;;;;;23.60;18.65;;;;;;;14.91;100.00;101955.78;7397930;19;20029;-73
2022/10/18 07:46:24;;;;;;;24.23;18.38;;;;;;;14.91;100.00;101959.31;7396248;19;20426;-72
2022/10/18 07:48:54;;;;;;;26.58;18.35;;;;;;;14.92;100.00;101968.94;7396880;19;20018;-72
2022/10/18 07:51:25;;;;;;;29.77;21.13;;;;;;;14.93;100.00;101959.28;7396190;19;20422;-72
2022/10/18 07:53:53;;;;;;;28.80;21.83;;;;;;;14.92;100.00;101953.09;7395968;19;20430;-72
2022/10/18 07:56:23;;;;;;;40.38;27.83;;;;;;;14.94;100.00;101961.00;7396408;19;20037;-72
2022/10/18 07:58:53;;;;;;;37.10;26.00;;;;;;;14.94;100.00;101956.59;7397687;19;20022;-72
2022/10/18 08:01:23;;;;;;;38.72;26.05;;;;;;;14.97;100.00;101960.94;7395664;19;20015;-72
2022/10/18 08:03:52;;;;;;;29.63;22.30;;;;;;;14.99;100.00;101972.34;7394902;19;20086;-71
2022/10/18 08:06:21;;;;;;;26.35;19.98;;;;;;;15.01;100.00;101982.88;7396583;19;20018;-70
2022/10/18 08:08:53;;;;;;;25.63;19.10;;;;;;;15.01;100.00;101975.81;7394930;19;20014;-72
2022/10/18 08:11:23;;;;;;;25.55;19.08;;;;;;;15.02;100.00;101972.28;7395559;19;20026;-72
2022/10/18 08:13:52;;;;;;;27.98;20.10;;;;;;;14.99;100.00;101969.72;7397150;19;20018;-73
2022/10/18 08:16:22;;;;;;;28.70;19.58;;;;;;;15.01;100.00;101990.81;7396957;19;20082;-72
2022/10/18 08:18:51;;;;;;;27.50;18.92;;;;;;;14.99;100.00;101997.00;7397297;19;20010;-73
2022/10/18 08:21:21;;;;;;;27.17;19.45;;;;;;;14.99;100.00;101998.78;7395124;19;20082;-73
2022/10/18 08:23:52;;;;;;;26.70;20.85;;;;;;;14.98;100.00;102004.97;7397042;19;20087;-73
2022/10/18 08:26:23;;;;;;;28.52;18.88;;;;;;;14.96;100.00;101985.63;7397270;19;20027;-71
2022/10/18 08:28:52;;;;;;;22.00;16.45;;;;;;;14.94;100.00;101971.59;7394891;19;20426;-73
2022/10/18 08:31:21;;;;;;;22.80;17.38;;;;;;;14.91;100.00;101964.59;7394661;19;20015;-72
2022/10/18 08:33:50;;;;;;;22.33;17.70;;;;;;;14.91;100.00;101964.59;7396339;19;20014;-73
2022/10/18 08:36:18;;;;;;;22.65;15.77;;;;;;;14.90;100.00;101975.16;7394446;19;20355;-72
2022/10/18 08:38:48;;;;;;;29.60;19.15;;;;;;;14.88;100.00;101988.41;7395822;19;20022;-73
2022/10/18 08:41:34;;;;;;;46.88;22.00;;;;;;;14.87;100.00;101988.44;7394071;19;20014;-72
2022/10/18 08:44:10;;;;;;;23.48;13.93;;;;;;;14.82;100.00;101988.53;7394943;19;20026;-71
2022/10/18 08:46:43;;;;;;;32.15;16.77;;;;;;;14.78;100.00;101986.88;7394351;19;20437;-70
2022/10/18 08:49:20;;;;;;;22.87;13.73;;;;;;;14.75;100.00;101976.38;7395069;19;20102;-71
2022/10/18 08:51:52;;;;;;;24.42;14.48;;;;;;;14.73;100.00;101981.66;7395883;19;20035;-71
2022/10/18 08:54:27;;;;;;;25.35;15.05;;;;;;;14.72;100.00;101974.66;7396465;19;20094;-72
2022/10/18 08:57:02;;;;;;;20.95;13.00;;;;;;;14.75;100.00;101982.50;7396442;19;20421;-70
2022/10/18 08:59:35;;;;;;;17.95;12.75;;;;;;;14.75;100.00;101969.31;7395748;19;20026;-71
2022/10/18 09:02:14;;;;;;;19.27;13.63;;;;;;;14.76;100.00;101986.91;7395927;19;20074;-70
2022/10/18 09:04:51;;;;;;;17.70;12.82;;;;;;;14.75;100.00;101974.59;7394455;19;20082;-72
2022/10/18 09:07:37;;;;;;;23.00;13.73;;;;;;;14.78;100.00;101974.50;7394291;19;20090;-71
2022/10/18 09:10:16;;;;;;;19.23;12.98;;;;;;;14.80;100.00;101969.22;7391920;19;20011;-71
2022/10/18 09:13:19;;;;;;;20.63;13.15;;;;;;;14.80;100.00;101959.50;7395323;19;20086;-71
2022/10/18 09:15:53;;;;;;;17.88;12.40;;;;;;;14.83;100.00;101963.88;7394374;19;20489;-72
2022/10/18 09:18:37;;;;;;;17.27;12.73;;;;;;;14.86;100.00;101962.94;7393821;19;20078;-70
2022/10/18 09:21:19;;;;;;;19.27;12.50;;;;;;;14.89;100.00;101960.25;7393588;19;20509;-71
2022/10/18 09:23:50;;;;;;;18.80;13.10;;;;;;;14.88;100.00;101954.06;7395715;19;20022;-73
2022/10/18 09:26:20;;;;;;;17.65;10.88;;;;;;;14.94;100.00;101958.38;7395593;19;20015;-73
2022/10/18 09:29:06;;;;;;;15.27;10.98;;;;;;;14.96;100.00;101961.84;7393405;19;20030;-70
2022/10/18 09:31:46;;;;;;;13.93;10.02;;;;;;;14.95;100.00;101957.44;7391965;19;20085;-68
2022/10/18 09:34:21;;;;;;;16.42;10.60;;;;;;;14.96;100.00;101945.97;7393518;19;20086;-69
2022/10/18 09:36:53;;;;;;;16.88;10.70;;;;;;;14.96;100.00;101948.63;7391923;19;20014;-68
2022/10/18 09:39:26;;;;;;;17.98;12.13;;;;;;;14.96;100.00;101959.19;7391668;19;20372;-68
2022/10/18 09:41:59;;;;;;;16.15;11.00;;;;;;;14.97;100.00;101953.00;7395917;19;20018;-70
2022/10/18 09:44:36;;;;;;;17.33;11.95;;;;;;;14.96;100.00;101949.50;7394595;19;20099;-70
2022/10/18 09:47:11;;;;;;;14.85;11.43;;;;;;;14.95;100.00;101960.97;7394091;19;20028;-71
2022/10/18 09:49:45;;;;;;;11.70;10.00;;;;;;;14.95;100.00;101957.44;7392378;19;20090;-70
2022/10/18 09:52:20;;;;;;;14.02;10.23;;;;;;;14.92;100.00;101958.38;7393782;19;20027;-70
2022/10/18 09:54:54;;;;;;;92.63;60.65;;;;;;;14.92;100.00;101957.53;7392710;19;20034;-68
2022/10/18 09:57:37;;;;;;;22.73;14.95;;;;;;;14.89;100.00;101961.09;7393570;19;20032;-68
2022/10/18 10:00:18;;;;;;;19.40;13.57;;;;;;;14.85;100.00;101962.06;7394404;19;20011;-68
2022/10/18 10:02:46;;;;;;;16.30;11.07;;;;;;;14.86;100.00;101962.94;7394857;19;20372;-68
2022/10/18 10:05:37;;;;;;;15.40;10.90;;;;;;;14.82;100.00;101960.38;7394433;19;20481;-68
2022/10/18 10:08:06;;;;;;;14.73;10.20;;;;;;;14.79;100.00;101975.41;7393740;19;20019;-68
2022/10/18 10:10:35;;;;;;;13.38;9.02;;;;;;;14.71;100.00;101967.63;7392342;19;20473;-69
2022/10/18 10:13:07;;;;;;;8.18;7.10;;;;;;;14.68;100.00;101975.59;7394706;19;20086;-68
2022/10/18 10:15:40;;;;;;;7.60;6.32;;;;;;;14.61;100.00;101971.31;7394402;19;20018;-68
2022/10/18 10:18:20;;;;;;;12.07;7.32;;;;;;;14.53;100.00;101975.84;7394319;19;20082;-68
2022/10/18 10:20:52;;;;;;;11.82;9.00;;;;;;;14.47;100.00;101977.72;7396325;19;20438;-68
2022/10/18 10:23:23;;;;;;;10.70;7.38;;;;;;;14.43;100.00;101977.78;7400258;19;20070;-68
2022/10/18 10:25:54;;;;;;;5.28;3.50;;;;;;;14.40;100.00;101981.34;7399752;19;20027;-68
2022/10/18 10:28:28;;;;;;;6.38;3.83;;;;;;;14.37;100.00;101986.72;7398086;19;20040;-67
2022/10/18 10:31:19;;;;;;;6.55;3.97;;;;;;;14.34;100.00;101994.66;7399456;19;20078;-68
2022/10/18 10:33:49;;;;;;;8.15;3.90;;;;;;;14.32;100.00;101981.50;7399921;19;20387;-70
2022/10/18 10:36:20;;;;;;;4.65;3.60;;;;;;;14.34;100.00;101981.47;7400348;19;20086;-73
2022/10/18 10:39:05;;;;;;;5.47;3.30;;;;;;;14.31;100.00;101974.47;7398458;19;20040;-70
2022/10/18 10:41:34;;;;;;;3.70;2.15;;;;;;;14.31;100.00;101970.97;7397719;19;20019;-68
2022/10/18 10:44:05;;;;;;;8.50;2.90;;;;;;;14.29;100.00;101968.38;7396790;19;20093;-70
2022/10/18 10:46:39;;;;;;;7.18;3.55;;;;;;;14.30;100.00;101967.44;7400159;19;20022;-71
2022/10/18 10:49:08;;;;;;;5.30;3.13;;;;;;;14.33;100.00;101961.25;7397808;19;20038;-70
2022/10/18 10:51:44;;;;;;;5.50;3.65;;;;;;;14.37;100.00;101948.84;7396587;19;20086;-71
2022/10/18 10:54:23;;;;;;;7.95;4.80;;;;;;;14.40;100.00;101946.19;7396606;19;20011;-71
2022/10/18 10:56:59;;;;;;;6.60;2.83;;;;;;;14.41;100.00;101946.16;7396376;19;20533;-71
2022/10/18 10:59:31;;;;;;;4.05;3.13;;;;;;;14.42;100.00;101942.59;7400200;19;20122;-71
2022/10/18 11:02:24;;;;;;;5.50;3.45;;;;;;;14.43;100.00;101938.19;7395406;19;20410;-69
2022/10/18 11:04:54;;;;;;;8.15;3.25;;;;;;;14.45;100.00;101936.41;7396513;19;20026;-72
2022/10/18 11:07:27;;;;;;;4.10;3.70;;;;;;;14.46;100.00;101939.00;7396162;19;20021;-69
2022/10/18 11:10:05;;;;;;;6.60;3.42;;;;;;;14.47;100.00;101934.63;7397278;19;20432;-69
2022/10/18 11:12:35;;;;;;;4.20;3.58;;;;;;;14.48;100.00;101926.66;7396473;19;20022;-68
2022/10/18 11:15:18;;;;;;;6.93;4.30;;;;;;;14.49;100.00;101916.94;7397863;19;20011;-70
2022/10/18 11:18:04;;;;;;;6.38;4.57;;;;;;;14.51;100.00;101912.53;7397659;19;20078;-71
2022/10/18 11:20:38;;;;;;;5.93;4.78;;;;;;;14.52;100.00;101906.34;7395819;19;20350;-70
2022/10/18 11:23:09;;;;;;;4.53;3.58;;;;;;;14.54;100.00;101893.97;7397588;19;20485;-70
2022/10/18 11:26:00;;;;;;;5.93;3.50;;;;;;;14.57;100.00;101886.00;7398085;19;20039;-70
2022/10/18 11:28:44;;;;;;;6.10;4.45;;;;;;;14.60;100.00;101877.13;7396204;19;20087;-70